createdAt,value
2023-05-05T01:57:51.005Z,3.72
2023-05-05T02:00:21.399Z,2.97
2023-05-05T02:02:51.935Z,3.72
2023-05-05T02:05:24.855Z,3.75
2023-05-05T02:07:59.420Z,2.90
2023-05-05T02:10:31.000Z,3.47
2023-05-05T02:13:05.796Z,4.10
2023-05-05T02:15:36.750Z,4.22
2023-05-05T02:40:36.638Z,3.65
2023-05-05T02:43:11.364Z,3.92
2023-05-05T02:45:40.610Z,3.40
2023-05-05T02:48:11.517Z,4.72
2023-05-05T02:50:41.455Z,4.43
2023-05-05T02:53:23.944Z,3.88
2023-05-05T02:56:19.685Z,5.15
2023-05-05T02:58:58.320Z,3.60
2023-05-05T03:02:08.548Z,3.72
2023-05-05T03:04:43.915Z,3.40
2023-05-05T03:07:23.702Z,4.03
2023-05-05T03:10:10.829Z,3.08
2023-05-05T03:12:54.011Z,4.30
2023-05-05T03:15:43.260Z,4.18
2023-05-05T03:18:13.634Z,2.95
2023-05-05T03:20:46.105Z,3.30
2023-05-05T03:23:21.770Z,3.45
2023-05-05T03:25:56.030Z,4.30
2023-05-05T03:28:35.668Z,2.33
2023-05-05T03:31:11.622Z,3.67
2023-05-05T03:33:42.325Z,5.50
2023-05-05T03:36:11.790Z,3.63
2023-05-05T03:38:41.529Z,4.53
2023-05-05T03:41:11.406Z,5.03
2023-05-05T03:43:40.592Z,3.23
2023-05-05T03:46:09.670Z,4.55
2023-05-05T03:48:38.889Z,3.73
2023-05-05T03:51:08.570Z,3.17
2023-05-05T03:53:38.283Z,2.97
2023-05-05T03:56:09.173Z,2.90
2023-05-05T03:58:39.145Z,3.75
2023-05-05T04:01:09.357Z,4.97
2023-05-05T04:03:39.967Z,3.80
2023-05-05T04:06:09.022Z,3.10
2023-05-05T04:08:38.030Z,3.50
2023-05-05T04:11:07.365Z,3.03
2023-05-05T04:13:37.094Z,4.00
2023-05-05T04:16:06.592Z,4.38
2023-05-05T04:18:35.717Z,4.05
2023-05-05T04:21:05.285Z,3.85
2023-05-05T04:23:34.455Z,2.70
2023-05-05T04:26:03.719Z,2.35
2023-05-05T04:28:32.740Z,4.35
2023-05-05T04:31:02.417Z,3.80
2023-05-05T04:33:33.407Z,2.72
2023-05-05T04:36:02.549Z,2.65
2023-05-05T04:38:31.882Z,3.22
2023-05-05T04:41:01.620Z,4.90
2023-05-05T04:43:30.903Z,3.75
2023-05-05T04:46:00.136Z,3.08
2023-05-05T04:48:33.093Z,3.63
2023-05-05T04:51:08.475Z,3.80
2023-05-05T04:53:38.685Z,3.10
2023-05-05T04:56:07.806Z,4.28
2023-05-05T04:58:37.028Z,4.03
2023-05-05T05:01:07.503Z,5.70
2023-05-05T05:03:37.722Z,4.20
2023-05-05T05:06:06.963Z,6.63
2023-05-05T05:08:37.775Z,5.15
2023-05-05T05:11:07.416Z,3.13
2023-05-05T05:13:37.145Z,3.25
2023-05-05T05:16:07.979Z,2.95
2023-05-05T05:18:37.276Z,5.17
2023-05-05T05:21:07.073Z,4.15
2023-05-05T05:23:36.446Z,4.00
2023-05-05T05:26:06.918Z,3.75
2023-05-05T05:28:37.428Z,4.15
2023-05-05T05:31:06.400Z,6.22
2023-05-05T05:33:35.631Z,5.25
2023-05-05T05:36:05.091Z,3.70
2023-05-05T05:38:34.329Z,4.60
2023-05-05T05:41:09.634Z,4.10
2023-05-05T05:43:39.871Z,5.82
2023-05-05T05:46:09.580Z,5.07
2023-05-05T05:48:41.028Z,4.18
2023-05-05T05:51:10.295Z,5.03
2023-05-05T05:53:40.076Z,4.72
2023-05-05T05:56:11.169Z,4.82
2023-05-05T05:58:41.525Z,4.60
2023-05-05T06:01:10.686Z,4.80
2023-05-05T06:03:39.809Z,9.32
2023-05-05T06:06:09.151Z,5.10
2023-05-05T06:08:38.462Z,3.28
2023-05-05T06:11:08.134Z,6.88
2023-05-05T06:13:37.133Z,4.47
2023-05-05T06:16:08.498Z,4.63
2023-05-05T06:18:39.224Z,4.57
2023-05-05T06:21:08.402Z,4.30
2023-05-05T06:23:37.620Z,3.63
2023-05-05T06:26:08.721Z,4.95
2023-05-05T06:28:37.672Z,3.13
2023-05-05T06:31:06.977Z,5.32
2023-05-05T06:33:35.995Z,5.70
2023-05-05T06:36:05.224Z,4.30
2023-05-05T06:38:34.161Z,5.60
2023-05-05T06:41:03.431Z,7.85
2023-05-05T06:43:32.435Z,4.97
2023-05-05T06:46:05.257Z,5.53
2023-05-05T06:48:34.295Z,4.70
2023-05-05T06:51:03.866Z,5.03
2023-05-05T06:53:32.893Z,6.68
2023-05-05T06:56:02.004Z,5.93
2023-05-05T06:58:33.002Z,4.57
2023-05-05T07:01:02.083Z,4.97
2023-05-05T07:03:32.163Z,5.03
2023-05-05T07:06:01.822Z,5.03
2023-05-05T07:08:30.801Z,5.10
2023-05-05T07:11:02.265Z,4.50
2023-05-05T07:13:32.008Z,5.30
2023-05-05T07:16:01.416Z,4.72
2023-05-05T07:18:30.456Z,4.03
2023-05-05T07:20:59.649Z,6.68
2023-05-05T07:23:29.188Z,4.70
2023-05-05T07:25:58.289Z,4.10
2023-05-05T07:28:28.211Z,5.22
2023-05-05T07:30:57.185Z,5.20
2023-05-05T07:33:26.199Z,4.68
2023-05-05T07:35:55.408Z,5.27
2023-05-05T07:38:26.318Z,5.55
2023-05-05T07:40:55.277Z,6.07
2023-05-05T07:43:24.842Z,6.00
2023-05-05T07:45:53.974Z,7.50
2023-05-05T07:48:23.158Z,4.97
2023-05-05T07:50:53.479Z,5.15
2023-05-05T07:53:22.401Z,6.32
2023-05-05T07:55:52.185Z,6.28
2023-05-05T07:58:21.323Z,4.88
2023-05-05T08:00:51.932Z,6.50
2023-05-05T08:03:25.253Z,5.25
2023-05-05T08:05:56.501Z,5.25
2023-05-05T08:08:25.581Z,6.00
2023-05-05T08:10:55.702Z,6.23
2023-05-05T08:13:25.169Z,5.82
2023-05-05T08:15:54.890Z,6.07
2023-05-05T08:18:23.840Z,5.53
2023-05-05T08:20:53.928Z,5.95
2023-05-05T08:23:22.831Z,9.10
2023-05-05T08:25:52.086Z,8.88
2023-05-05T08:28:21.637Z,7.97
2023-05-05T08:30:53.154Z,7.40
2023-05-05T08:33:22.262Z,7.57
2023-05-05T08:35:51.146Z,7.27
2023-05-05T08:38:20.206Z,6.72
2023-05-05T08:40:49.187Z,10.90
2023-05-05T08:43:21.201Z,10.38
2023-05-05T08:45:52.700Z,9.15
2023-05-05T08:48:24.525Z,7.85
2023-05-05T08:51:01.957Z,9.95
2023-05-05T08:53:57.304Z,13.18
2023-05-05T08:56:34.746Z,9.95
2023-05-05T08:59:04.578Z,10.13
2023-05-05T09:01:35.584Z,10.93
2023-05-05T09:04:06.036Z,11.87
2023-05-05T09:06:36.541Z,13.50
2023-05-05T09:09:05.671Z,13.50
2023-05-05T09:11:36.751Z,12.20
2023-05-05T09:14:05.760Z,13.45
2023-05-05T09:16:35.004Z,14.30
2023-05-05T09:19:07.272Z,12.27
2023-05-05T09:21:36.431Z,12.85
2023-05-05T09:24:10.793Z,13.40
2023-05-05T09:26:42.992Z,12.63
2023-05-05T09:29:20.440Z,15.52
2023-05-05T09:32:09.488Z,17.83
2023-05-05T09:34:40.131Z,11.87
2023-05-05T09:37:08.993Z,14.20
2023-05-05T09:39:38.194Z,13.07
2023-05-05T09:42:07.252Z,14.02
2023-05-05T09:44:41.279Z,13.57
2023-05-05T09:47:26.112Z,12.25
2023-05-05T09:50:01.033Z,13.40
2023-05-05T09:52:31.355Z,13.25
2023-05-05T09:55:00.578Z,12.85
2023-05-05T09:57:34.877Z,10.35
2023-05-05T10:00:05.389Z,9.77
2023-05-05T10:02:39.747Z,9.55
2023-05-05T10:05:18.277Z,9.88
2023-05-05T10:07:48.989Z,13.10
2023-05-05T10:10:19.192Z,10.93
2023-05-05T10:12:50.560Z,10.67
2023-05-05T10:15:20.104Z,9.73
2023-05-05T10:18:06.164Z,10.97
2023-05-05T10:20:39.396Z,11.52
2023-05-05T10:23:11.683Z,8.90
2023-05-05T10:25:58.431Z,10.60
2023-05-05T10:28:34.589Z,10.40
2023-05-05T10:31:16.228Z,10.02
2023-05-05T10:34:04.600Z,9.77
2023-05-05T10:36:34.691Z,10.97
2023-05-05T10:39:04.391Z,10.17
2023-05-05T10:41:35.316Z,8.48
2023-05-05T10:44:05.497Z,10.45
2023-05-05T10:46:35.202Z,10.57
2023-05-05T10:49:23.849Z,9.93
2023-05-05T10:52:05.569Z,10.68
2023-05-05T10:54:41.295Z,8.75
2023-05-05T10:57:13.502Z,11.75
2023-05-05T10:59:43.507Z,10.35
2023-05-05T11:02:33.105Z,10.45
2023-05-05T11:05:23.082Z,10.18
2023-05-05T11:07:53.062Z,10.70
2023-05-05T11:10:24.013Z,9.40
2023-05-05T11:12:58.265Z,10.95
2023-05-05T11:15:32.719Z,10.63
2023-05-05T11:18:06.733Z,10.93
2023-05-05T11:20:41.454Z,11.37
2023-05-05T11:23:10.318Z,12.00
2023-05-05T11:25:41.540Z,10.27
2023-05-05T11:28:16.016Z,9.80
2023-05-05T11:30:59.853Z,12.15
2023-05-05T11:33:32.099Z,8.43
2023-05-05T11:36:06.944Z,10.57
2023-05-05T11:39:00.989Z,10.70
2023-05-05T11:41:35.793Z,11.90
2023-05-05T11:44:16.742Z,8.82
2023-05-05T11:46:56.210Z,12.15
2023-05-05T11:49:38.339Z,13.35
2023-05-05T11:52:09.208Z,11.87
2023-05-05T11:54:50.042Z,11.43
2023-05-05T11:57:24.346Z,9.85
2023-05-05T12:00:09.582Z,11.07
2023-05-05T12:02:39.063Z,12.60
2023-05-05T12:05:08.958Z,12.85
2023-05-05T12:07:38.132Z,9.02
2023-05-05T12:10:20.026Z,10.65
2023-05-05T12:12:49.041Z,11.23
2023-05-05T12:15:18.677Z,11.68
2023-05-05T12:17:52.654Z,11.45
2023-05-05T12:20:35.468Z,12.23
2023-05-05T12:23:05.240Z,12.75
2023-05-05T12:25:39.221Z,11.85
2023-05-05T12:28:10.063Z,8.93
2023-05-05T12:30:39.093Z,10.63
2023-05-05T12:35:52.286Z,10.45
2023-05-05T12:38:22.779Z,11.70
2023-05-05T12:40:54.769Z,10.73
2023-05-05T12:43:34.967Z,14.95
2023-05-05T12:46:10.431Z,11.93
2023-05-05T12:48:41.819Z,10.45
2023-05-05T12:51:21.980Z,10.95
2023-05-05T12:54:06.732Z,11.65
2023-05-05T12:56:47.053Z,8.98
2023-05-05T12:59:26.820Z,12.73
2023-05-05T13:01:57.262Z,12.63
2023-05-05T13:04:28.413Z,10.20
2023-05-05T13:07:12.646Z,11.77
2023-05-05T13:09:42.519Z,10.27
2023-05-05T13:12:14.052Z,11.80
2023-05-05T13:14:43.281Z,11.85
2023-05-05T13:17:13.134Z,14.18
2023-05-05T13:19:47.355Z,14.60
2023-05-05T13:22:17.829Z,12.23
2023-05-05T13:24:51.781Z,14.88
2023-05-05T13:27:22.156Z,11.15
2023-05-05T13:29:51.356Z,19.77
2023-05-05T13:32:20.149Z,15.40
2023-05-05T13:34:49.853Z,15.15
2023-05-05T13:37:20.834Z,15.00
2023-05-05T13:39:49.930Z,15.13
2023-05-05T13:42:20.673Z,14.95
2023-05-05T13:44:49.599Z,11.32
2023-05-05T13:47:18.731Z,15.55
2023-05-05T13:49:48.128Z,12.85
2023-05-05T13:52:17.167Z,13.75
2023-05-05T13:54:46.552Z,12.97
2023-05-05T13:57:16.024Z,13.82
2023-05-05T13:59:45.752Z,14.32
2023-05-05T14:02:14.793Z,14.93
2023-05-05T14:04:43.900Z,16.08
2023-05-05T14:07:12.996Z,10.98
2023-05-05T14:09:42.119Z,13.52
2023-05-05T14:12:11.049Z,14.87
2023-05-05T14:14:40.129Z,12.20
2023-05-05T14:17:08.985Z,13.50
2023-05-05T14:19:37.988Z,12.25
2023-05-05T14:22:06.964Z,16.45
2023-05-05T14:24:37.511Z,15.13
2023-05-05T14:27:06.692Z,16.47
2023-05-05T14:29:36.169Z,13.32
2023-05-05T14:32:05.977Z,14.43
2023-05-05T14:34:35.379Z,14.13
2023-05-05T14:37:05.484Z,21.27
2023-05-05T14:39:55.690Z,16.25
2023-05-05T14:42:25.388Z,18.80
2023-05-05T14:44:54.518Z,16.52
2023-05-05T14:47:24.119Z,15.15
2023-05-05T14:49:53.046Z,17.20
2023-05-05T14:52:22.011Z,18.85
2023-05-05T14:54:51.121Z,15.02
2023-05-05T14:57:20.447Z,16.90
2023-05-05T14:59:52.953Z,17.83
2023-05-05T15:02:22.013Z,17.30
2023-05-05T15:04:51.010Z,16.17
2023-05-05T15:07:28.821Z,17.43
2023-05-05T15:09:57.709Z,17.80
2023-05-05T15:12:27.083Z,15.93
2023-05-05T15:14:56.451Z,17.83
2023-05-05T15:17:25.729Z,17.52
2023-05-05T15:19:54.704Z,15.40
2023-05-05T15:22:24.100Z,15.98
2023-05-05T15:24:53.681Z,18.73
2023-05-05T15:27:28.646Z,17.08
2023-05-05T15:30:03.071Z,20.20
2023-05-05T15:33:25.306Z,19.75
2023-05-05T15:35:57.932Z,16.10
2023-05-05T15:38:29.316Z,16.13
2023-05-05T15:41:09.726Z,16.33
2023-05-05T15:43:40.981Z,18.25
2023-05-05T15:46:09.827Z,18.37
2023-05-05T15:48:38.598Z,17.73
2023-05-05T15:51:16.910Z,19.90
2023-05-05T15:53:47.376Z,17.73
2023-05-05T15:56:15.989Z,19.55
2023-05-05T15:58:45.082Z,22.48
2023-05-05T16:01:13.992Z,18.65
2023-05-05T16:03:43.441Z,18.08
2023-05-05T16:06:15.612Z,22.60
2023-05-05T16:11:27.859Z,20.85
2023-05-05T16:13:57.651Z,19.73
2023-05-05T16:16:26.615Z,20.85
2023-05-05T16:18:55.794Z,21.03
2023-05-05T16:21:24.723Z,19.13
2023-05-05T16:23:53.804Z,19.85
2023-05-05T16:29:04.790Z,20.60
2023-05-05T16:31:34.774Z,19.83
2023-05-05T16:34:03.684Z,18.05
2023-05-05T16:39:16.098Z,21.23
2023-05-05T16:41:44.825Z,21.60
